Time;durP1;ratioP1;P1;durP2;ratioP2;P2;SDS_P1;SDS_P2;PMS_P1;PMS_P2;Temp;Humidity;BMP_temperature;BMP_pressure;BME280_temperature;BME280_humidity;BME280_pressure;Samples;Min_cycle;Max_cycle;Signal;HPM_P1;HPM_P2
2023/09/14 00:01:40;;;;;;;20.65;17.67;;;;;15.20;94629.00;;;;7395608;19;20148;-77
2023/09/14 00:04:07;;;;;;;24.17;17.27;;;;;15.10;94627.00;;;;7399321;19;20156;-75
2023/09/14 00:06:42;;;;;;;23.60;19.48;;;;;15.10;94631.00;;;;7398347;19;20132;-75
2023/09/14 00:09:10;;;;;;;25.52;19.20;;;;;15.10;94631.00;;;;7398541;19;20512;-75
2023/09/14 00:11:44;;;;;;;24.67;19.83;;;;;15.00;94631.00;;;;7399483;19;20145;-74
2023/09/14 00:14:19;;;;;;;20.85;18.55;;;;;15.00;94629.00;;;;7397238;19;20672;-75
2023/09/14 00:16:47;;;;;;;26.52;20.02;;;;;15.00;94624.00;;;;7396366;19;20610;-74
2023/09/14 00:19:15;;;;;;;25.02;19.10;;;;;14.90;94626.00;;;;7398955;19;20584;-76
2023/09/14 00:21:49;;;;;;;28.85;19.98;;;;;14.90;94630.00;;;;7395261;19;20164;-75
2023/09/14 00:24:30;;;;;;;26.55;20.25;;;;;14.80;94630.00;;;;7396880;19;20172;-75
2023/09/14 00:27:12;;;;;;;23.77;19.05;;;;;14.80;94624.00;;;;7397349;19;20651;-75
2023/09/14 00:29:47;;;;;;;29.85;18.48;;;;;14.80;94624.00;;;;7397081;19;20141;-74
2023/09/14 00:32:21;;;;;;;28.20;20.08;;;;;14.90;94628.00;;;;7395872;19;20666;-71
2023/09/14 00:34:49;;;;;;;28.20;20.80;;;;;14.90;94622.00;;;;7395481;19;20144;-72
2023/09/14 00:37:23;;;;;;;27.73;20.55;;;;;14.70;94624.00;;;;7395940;19;20513;-71
2023/09/14 00:39:52;;;;;;;26.27;20.60;;;;;14.70;94624.00;;;;7395446;19;20929;-73
2023/09/14 00:42:26;;;;;;;26.58;19.38;;;;;14.70;94612.00;;;;7385667;19;20143;-72
2023/09/14 00:45:01;;;;;;;31.88;20.60;;;;;14.80;94619.00;;;;7392021;19;20805;-72
2023/09/14 00:47:36;;;;;;;31.45;22.08;;;;;14.80;94616.00;;;;7395345;19;20503;-71
2023/09/14 00:50:15;;;;;;;29.42;21.83;;;;;14.70;94619.00;;;;7396450;19;20167;-72
2023/09/14 00:53:02;;;;;;;29.33;20.65;;;;;14.80;94633.00;;;;7396169;19;20153;-70
2023/09/14 00:55:31;;;;;;;29.73;21.63;;;;;14.80;94630.00;;;;7394481;19;20606;-74
2023/09/14 00:58:06;;;;;;;27.02;18.60;;;;;14.80;94631.00;;;;7395116;19;20152;-71
2023/09/14 01:00:40;;;;;;;28.55;18.83;;;;;14.80;94627.00;;;;7398291;19;20161;-76
2023/09/14 01:03:16;;;;;;;25.20;18.45;;;;;14.80;94634.00;;;;7396389;19;20140;-76
2023/09/14 01:05:51;;;;;;;26.08;19.02;;;;;14.80;94627.00;;;;7395323;19;20219;-74
2023/09/14 01:08:20;;;;;;;27.55;20.42;;;;;14.90;94632.00;;;;7395438;19;20161;-76
2023/09/14 01:10:55;;;;;;;33.15;20.75;;;;;14.90;94623.00;;;;7395428;19;20206;-75
2023/09/14 01:13:56;;;;;;;29.67;20.13;;;;;14.80;94619.00;;;;7395955;19;20137;-75
2023/09/14 01:16:46;;;;;;;26.80;17.98;;;;;14.80;94625.00;;;;7393298;19;20184;-76
2023/09/14 01:19:23;;;;;;;29.58;19.60;;;;;14.70;94624.00;;;;7396387;19;20141;-75
2023/09/14 01:22:22;;;;;;;30.73;20.13;;;;;14.70;94620.00;;;;7397368;19;20131;-75
2023/09/14 01:25:25;;;;;;;27.67;18.00;;;;;14.70;94621.00;;;;7393838;19;20623;-76
2023/09/14 01:28:11;;;;;;;29.73;19.80;;;;;14.70;94624.00;;;;7393755;19;20144;-76
2023/09/14 01:30:46;;;;;;;34.13;19.85;;;;;14.80;94619.00;;;;7396836;19;20133;-75
2023/09/14 01:33:24;;;;;;;29.85;19.52;;;;;14.60;94629.00;;;;7395267;19;20136;-75
2023/09/14 01:36:08;;;;;;;35.88;22.23;;;;;14.60;94623.00;;;;7394101;19;20612;-74
2023/09/14 01:38:37;;;;;;;33.03;21.83;;;;;14.50;94632.00;;;;7394321;19;20486;-76
2023/09/14 01:41:14;;;;;;;27.83;19.88;;;;;14.60;94628.00;;;;7395746;19;20120;-75
2023/09/14 01:43:48;;;;;;;34.67;22.73;;;;;14.70;94626.00;;;;7394096;19;20153;-76
2023/09/14 01:46:24;;;;;;;33.35;21.08;;;;;14.70;94630.00;;;;7396717;19;20216;-73
2023/09/14 01:48:52;;;;;;;30.15;20.70;;;;;14.60;94628.00;;;;7401308;19;20153;-75
2023/09/14 01:51:27;;;;;;;28.77;19.17;;;;;14.70;94633.00;;;;7402933;19;20606;-75
2023/09/14 01:54:01;;;;;;;28.75;19.20;;;;;14.70;94624.00;;;;7400750;19;20567;-75
2023/09/14 01:56:29;;;;;;;29.88;19.02;;;;;14.70;94637.00;;;;7398945;19;20161;-76
2023/09/14 01:59:03;;;;;;;22.85;16.95;;;;;14.70;94632.00;;;;7400612;19;20499;-76
2023/09/14 02:01:30;;;;;;;23.73;17.30;;;;;14.70;94632.00;;;;7401567;19;20147;-76
2023/09/14 02:04:05;;;;;;;27.83;17.85;;;;;14.80;94627.00;;;;7402377;19;20153;-76
2023/09/14 02:06:33;;;;;;;22.33;16.08;;;;;14.80;94628.00;;;;7400847;19;20143;-75
2023/09/14 02:09:01;;;;;;;21.42;15.07;;;;;14.70;94626.00;;;;7401718;19;20607;-75
2023/09/14 02:11:35;;;;;;;20.90;15.70;;;;;14.70;94625.00;;;;7400920;19;20144;-77
2023/09/14 02:14:10;;;;;;;22.33;16.05;;;;;14.70;94628.00;;;;7401350;19;20133;-76
2023/09/14 02:16:38;;;;;;;22.10;15.05;;;;;14.60;94629.00;;;;7399750;19;20137;-76
2023/09/14 02:19:11;;;;;;;19.70;15.18;;;;;14.60;94624.00;;;;7401443;19;20468;-77
2023/09/14 02:21:40;;;;;;;23.08;16.00;;;;;14.70;94623.00;;;;7402042;19;20125;-76
2023/09/14 02:24:08;;;;;;;24.15;15.35;;;;;14.60;94621.00;;;;7401418;19;20588;-77
2023/09/14 02:26:51;;;;;;;19.85;13.40;;;;;14.60;94619.00;;;;7400131;19;20555;-75
2023/09/14 02:29:19;;;;;;;25.02;15.30;;;;;14.60;94625.00;;;;7400916;19;20733;-76
2023/09/14 02:31:53;;;;;;;23.85;16.98;;;;;14.50;94632.00;;;;7400758;19;20136;-77
2023/09/14 02:34:21;;;;;;;19.73;15.20;;;;;14.50;94623.00;;;;7400808;19;20141;-78
2023/09/14 02:36:56;;;;;;;18.70;14.18;;;;;14.50;94618.00;;;;7397380;19;20618;-77
2023/09/14 02:39:24;;;;;;;20.17;15.52;;;;;14.40;94624.00;;;;7399835;19;20174;-76
2023/09/14 02:41:52;;;;;;;21.60;15.05;;;;;14.40;94618.00;;;;7399626;19;20140;-77
2023/09/14 02:44:26;;;;;;;20.67;15.52;;;;;14.40;94625.00;;;;7399882;19;20642;-76
2023/09/14 02:46:54;;;;;;;21.15;14.57;;;;;14.40;94620.00;;;;7400098;19;20190;-76
2023/09/14 02:49:28;;;;;;;19.33;13.90;;;;;14.40;94618.00;;;;7398743;19;20148;-76
2023/09/14 02:51:56;;;;;;;20.33;14.25;;;;;14.40;94627.00;;;;7399593;19;20137;-75
2023/09/14 02:54:31;;;;;;;24.88;15.45;;;;;14.40;94627.00;;;;7399647;19;20144;-76
2023/09/14 02:57:00;;;;;;;22.17;14.35;;;;;14.30;94628.00;;;;7399161;19;20607;-77
2023/09/14 02:59:35;;;;;;;20.05;14.73;;;;;14.30;94623.00;;;;7399693;19;20517;-76
2023/09/14 03:02:04;;;;;;;21.60;14.90;;;;;14.40;94623.00;;;;7397546;19;20164;-76
2023/09/14 03:04:39;;;;;;;23.77;15.00;;;;;14.30;94630.00;;;;7398775;19;20611;-76
2023/09/14 03:07:09;;;;;;;24.17;14.82;;;;;14.40;94633.00;;;;7400336;19;20444;-76
2023/09/14 03:09:44;;;;;;;19.35;13.15;;;;;14.40;94629.00;;;;7398675;19;20133;-76
2023/09/14 03:12:12;;;;;;;20.08;13.85;;;;;14.40;94630.00;;;;7398677;19;20173;-76
2023/09/14 03:14:47;;;;;;;19.15;12.88;;;;;14.40;94631.00;;;;7398964;19;20208;-75
2023/09/14 03:17:15;;;;;;;15.00;12.02;;;;;14.40;94626.00;;;;7398914;19;20253;-76
2023/09/14 03:19:52;;;;;;;19.63;12.70;;;;;14.40;94624.00;;;;7398568;19;20149;-76
2023/09/14 03:22:27;;;;;;;19.75;12.82;;;;;14.40;94635.00;;;;7398300;19;20626;-72
2023/09/14 03:25:09;;;;;;;18.10;12.90;;;;;14.40;94628.00;;;;7397733;19;20227;-73
2023/09/14 03:27:50;;;;;;;16.40;12.88;;;;;14.30;94628.00;;;;7397950;19;20148;-71
2023/09/14 03:30:25;;;;;;;16.25;12.35;;;;;14.20;94625.00;;;;7397561;19;20156;-72
2023/09/14 03:32:53;;;;;;;16.75;12.25;;;;;14.20;94637.00;;;;7398965;19;20217;-71
2023/09/14 03:35:28;;;;;;;14.75;11.45;;;;;14.10;94625.00;;;;7397748;19;20162;-72
2023/09/14 03:37:56;;;;;;;16.92;12.52;;;;;14.10;94632.00;;;;7394926;19;20655;-72
2023/09/14 03:40:24;;;;;;;18.23;13.15;;;;;14.00;94629.00;;;;7398500;19;20616;-71
2023/09/14 03:42:59;;;;;;;16.88;12.05;;;;;13.90;94628.00;;;;7399523;19;20464;-72
2023/09/14 03:45:27;;;;;;;15.65;11.48;;;;;13.80;94627.00;;;;7397180;19;20143;-70
2023/09/14 03:48:02;;;;;;;19.35;12.77;;;;;13.60;94621.00;;;;7398800;19;20503;-72
2023/09/14 03:50:37;;;;;;;19.17;12.88;;;;;13.50;94624.00;;;;7396710;19;20204;-72
2023/09/14 03:53:05;;;;;;;18.60;13.07;;;;;13.40;94633.00;;;;7397010;19;20166;-71
2023/09/14 03:55:40;;;;;;;17.80;12.60;;;;;13.30;94621.00;;;;7398348;19;20129;-71
2023/09/14 03:58:08;;;;;;;20.08;13.35;;;;;13.20;94631.00;;;;7396685;19;20125;-72
2023/09/14 04:00:44;;;;;;;17.48;12.57;;;;;13.10;94632.00;;;;7396769;19;20257;-71
2023/09/14 04:03:12;;;;;;;23.23;14.52;;;;;13.00;94628.00;;;;7398876;19;20188;-70
2023/09/14 04:05:47;;;;;;;23.77;14.75;;;;;12.90;94622.00;;;;7396724;19;20172;-70
2023/09/14 04:08:15;;;;;;;16.05;11.38;;;;;12.80;94626.00;;;;7396914;19;20208;-72
2023/09/14 04:10:51;;;;;;;18.38;11.10;;;;;12.80;94625.00;;;;7395265;19;20144;-73
2023/09/14 04:13:32;;;;;;;16.75;11.05;;;;;12.70;94629.00;;;;7396247;19;20611;-72
2023/09/14 04:16:06;;;;;;;17.67;11.98;;;;;12.70;94637.00;;;;7396636;19;20156;-72
2023/09/14 04:18:36;;;;;;;19.13;11.48;;;;;12.80;94627.00;;;;7396932;19;20133;-72
2023/09/14 04:21:11;;;;;;;15.55;11.35;;;;;12.80;94638.00;;;;7396713;19;20624;-72
2023/09/14 04:23:40;;;;;;;15.93;11.45;;;;;12.70;94640.00;;;;7397159;19;20140;-72
2023/09/14 04:26:09;;;;;;;20.58;11.88;;;;;12.70;94641.00;;;;7395173;19;20176;-70
2023/09/14 04:28:44;;;;;;;18.40;11.73;;;;;12.80;94643.00;;;;7395574;19;20144;-71
2023/09/14 04:31:13;;;;;;;18.70;12.15;;;;;12.80;94636.00;;;;7397297;19;20200;-73
2023/09/14 04:33:47;;;;;;;14.02;10.50;;;;;12.90;94637.00;;;;7396959;19;20128;-72
2023/09/14 04:36:15;;;;;;;16.75;10.75;;;;;13.00;94644.00;;;;7395550;19;20172;-74
2023/09/14 04:38:43;;;;;;;19.80;13.20;;;;;13.00;94645.00;;;;7396399;19;20193;-73
2023/09/14 04:41:18;;;;;;;23.50;15.20;;;;;13.10;94641.00;;;;7395706;19;20178;-70
2023/09/14 04:43:46;;;;;;;23.55;14.38;;;;;13.30;94648.00;;;;7395126;19;20619;-73
2023/09/14 04:46:21;;;;;;;26.45;15.98;;;;;13.40;94666.00;;;;7394841;19;20176;-76
2023/09/14 04:48:49;;;;;;;27.35;16.75;;;;;13.50;94647.00;;;;7393012;19;20145;-72
2023/09/14 04:51:20;;;;;;;27.58;17.10;;;;;13.50;94654.00;;;;7395300;19;20608;-72
2023/09/14 04:53:55;;;;;;;24.13;16.15;;;;;13.50;94655.00;;;;7397242;19;20488;-72
2023/09/14 04:56:23;;;;;;;24.77;15.07;;;;;13.60;94658.00;;;;7392374;19;20244;-72
2023/09/14 04:58:58;;;;;;;28.48;15.88;;;;;13.60;94657.00;;;;7393558;19;20157;-72
2023/09/14 05:01:27;;;;;;;23.67;13.70;;;;;13.60;94645.00;;;;7391585;19;20647;-71
2023/09/14 05:04:01;;;;;;;22.08;15.18;;;;;13.60;94648.00;;;;7394516;19;20172;-72
2023/09/14 05:06:33;;;;;;;22.40;14.70;;;;;13.60;94650.00;;;;7396893;19;20220;-72
2023/09/14 05:09:07;;;;;;;24.52;15.98;;;;;13.70;94651.00;;;;7394964;19;20156;-72
2023/09/14 05:11:35;;;;;;;23.50;13.68;;;;;13.70;94656.00;;;;7394196;19;20607;-72
2023/09/14 05:14:03;;;;;;;21.95;14.57;;;;;13.80;94657.00;;;;7395740;19;20136;-72
2023/09/14 05:16:38;;;;;;;22.17;15.20;;;;;13.80;94658.00;;;;7367395;19;20128;-70
2023/09/14 05:19:12;;;;;;;22.83;14.13;;;;;13.80;94657.00;;;;7380317;19;20212;-69
2023/09/14 05:21:43;;;;;;;24.40;14.55;;;;;13.90;94647.00;;;;7383425;19;20156;-70
2023/09/14 05:24:32;;;;;;;28.67;18.27;;;;;14.00;94648.00;;;;7380765;19;20160;-71
2023/09/14 05:27:11;;;;;;;27.98;17.08;;;;;14.00;94645.00;;;;7380665;19;20149;-73
2023/09/14 05:29:46;;;;;;;26.27;16.67;;;;;14.10;94654.00;;;;7382287;19;20763;-72
2023/09/14 05:32:14;;;;;;;23.42;15.95;;;;;14.10;94655.00;;;;7382541;19;20153;-72
2023/09/14 05:34:49;;;;;;;21.48;15.88;;;;;14.20;94662.00;;;;7380190;19;20139;-70
2023/09/14 05:37:23;;;;;;;25.08;16.95;;;;;14.30;94657.00;;;;7380297;19;20138;-71
2023/09/14 05:39:51;;;;;;;22.42;16.50;;;;;14.40;94656.00;;;;7381743;19;20619;-72
2023/09/14 05:42:27;;;;;;;27.30;17.38;;;;;14.40;94655.00;;;;7379871;19;20618;-75
2023/09/14 05:45:02;;;;;;;21.40;14.60;;;;;14.30;94658.00;;;;7381780;19;20820;-75
2023/09/14 05:47:30;;;;;;;22.13;15.45;;;;;14.40;94653.00;;;;7381949;19;20136;-75
2023/09/14 05:50:08;;;;;;;20.63;14.27;;;;;14.40;94665.00;;;;7382938;19;20608;-75
2023/09/14 05:52:42;;;;;;;19.73;13.85;;;;;14.50;94667.00;;;;7380410;19;20635;-76
2023/09/14 05:55:10;;;;;;;20.25;14.80;;;;;14.50;94666.00;;;;7384421;19;20133;-75
2023/09/14 05:57:38;;;;;;;21.38;16.02;;;;;14.50;94659.00;;;;7379744;19;20136;-76
2023/09/14 06:00:13;;;;;;;18.98;15.23;;;;;14.60;94661.00;;;;7380543;19;20945;-75
2023/09/14 06:02:42;;;;;;;23.33;15.90;;;;;14.70;94659.00;;;;7380312;19;20153;-75
2023/09/14 06:05:22;;;;;;;20.80;15.48;;;;;14.70;94664.00;;;;7381135;19;20160;-75
2023/09/14 06:07:56;;;;;;;21.10;14.63;;;;;14.80;94662.00;;;;7379681;19;20157;-74
2023/09/14 06:10:31;;;;;;;17.83;14.05;;;;;14.90;94669.00;;;;7378717;19;20180;-74
2023/09/14 06:12:58;;;;;;;20.65;14.32;;;;;14.90;94674.00;;;;7382409;19;20148;-75
2023/09/14 06:15:34;;;;;;;21.48;15.02;;;;;14.90;94675.00;;;;7381677;19;20136;-75
2023/09/14 06:18:09;;;;;;;18.42;12.45;;;;;15.00;94679.00;;;;7379519;19;20144;-75
2023/09/14 06:20:37;;;;;;;16.77;12.55;;;;;15.10;94674.00;;;;7381347;19;20133;-74
2023/09/14 06:23:11;;;;;;;19.33;13.82;;;;;14.90;94677.00;;;;7379650;19;20621;-74
2023/09/14 06:25:47;;;;;;;17.75;14.00;;;;;14.90;94678.00;;;;7380351;19;20212;-74
2023/09/14 06:28:20;;;;;;;16.92;13.48;;;;;14.90;94678.00;;;;7380665;19;20566;-77
2023/09/14 06:30:55;;;;;;;17.50;13.30;;;;;14.80;94679.00;;;;7380042;19;20166;-76
2023/09/14 06:33:23;;;;;;;18.42;11.55;;;;;15.00;94679.00;;;;7381870;19;20132;-75
2023/09/14 06:35:58;;;;;;;14.38;11.35;;;;;15.20;94676.00;;;;7386745;19;20152;-74
2023/09/14 06:38:26;;;;;;;16.35;12.77;;;;;15.40;94677.00;;;;7386970;19;20518;-74
2023/09/14 06:41:01;;;;;;;16.50;13.00;;;;;15.50;94673.00;;;;7387005;19;21182;-74
2023/09/14 06:43:29;;;;;;;17.70;13.00;;;;;15.60;94672.00;;;;7386656;19;20193;-76
2023/09/14 06:46:03;;;;;;;15.13;11.85;;;;;15.70;94670.00;;;;7388069;19;20588;-76
2023/09/14 06:48:32;;;;;;;12.20;10.52;;;;;15.90;94646.00;;;;7385392;19;20153;-75
2023/09/14 06:51:06;;;;;;;18.73;13.60;;;;;16.00;94669.00;;;;7385639;19;20497;-74
2023/09/14 06:53:34;;;;;;;15.00;11.80;;;;;16.20;94671.00;;;;7387051;19;20148;-75
2023/09/14 06:56:10;;;;;;;15.25;11.57;;;;;16.30;94669.00;;;;7387514;19;20472;-76
2023/09/14 06:58:45;;;;;;;15.88;12.43;;;;;16.50;94660.00;;;;7384801;19;20461;-76
2023/09/14 07:01:20;;;;;;;14.30;11.48;;;;;16.50;94660.00;;;;7382475;19;20261;-75
2023/09/14 07:03:52;;;;;;;14.73;12.98;;;;;16.40;94670.00;;;;7385947;19;20152;-76
2023/09/14 07:06:26;;;;;;;16.05;12.10;;;;;16.40;94668.00;;;;7386274;19;20128;-74
2023/09/14 07:08:55;;;;;;;14.07;11.27;;;;;16.70;94670.00;;;;7384887;19;20223;-74
2023/09/14 07:11:29;;;;;;;13.15;11.32;;;;;16.80;94660.00;;;;7385437;19;20628;-76
2023/09/14 07:13:58;;;;;;;14.95;11.70;;;;;16.90;94660.00;;;;7385523;19;20765;-75
2023/09/14 07:16:33;;;;;;;11.32;10.10;;;;;16.90;94659.00;;;;7385808;19;20140;-76
2023/09/14 07:19:02;;;;;;;12.55;10.98;;;;;16.80;94675.00;;;;7385210;19;20200;-74
2023/09/14 07:21:34;;;;;;;11.45;10.25;;;;;16.80;94671.00;;;;7385030;19;20148;-74
2023/09/14 07:24:09;;;;;;;11.90;10.52;;;;;17.00;94666.00;;;;7387380;19;20132;-73
2023/09/14 07:26:44;;;;;;;11.80;9.30;;;;;17.40;94667.00;;;;7384007;19;20187;-75
2023/09/14 07:29:19;;;;;;;10.95;9.57;;;;;17.60;94675.00;;;;7385109;19;20147;-74
2023/09/14 07:31:54;;;;;;;10.88;9.38;;;;;17.30;94669.00;;;;7384148;19;20144;-74
2023/09/14 07:34:22;;;;;;;10.98;9.25;;;;;17.60;94681.00;;;;7386556;19;20478;-75
2023/09/14 07:36:57;;;;;;;11.05;8.65;;;;;17.90;94667.00;;;;7384321;19;20281;-74
2023/09/14 07:39:24;;;;;;;10.40;8.65;;;;;17.90;94669.00;;;;7385526;19;20212;-75
2023/09/14 07:41:58;;;;;;;10.05;8.52;;;;;17.50;94674.00;;;;7385448;19;20153;-75
2023/09/14 07:44:27;;;;;;;8.82;7.93;;;;;17.40;94675.00;;;;7385672;19;20133;-75
2023/09/14 07:47:02;;;;;;;9.38;8.38;;;;;18.00;94677.00;;;;7384462;19;20129;-74
2023/09/14 07:49:29;;;;;;;9.98;7.85;;;;;18.10;94676.00;;;;7385760;19;20769;-74
2023/09/14 07:52:04;;;;;;;10.77;8.25;;;;;18.10;94688.00;;;;7385463;19;20143;-75
2023/09/14 07:54:34;;;;;;;10.23;8.05;;;;;18.30;94690.00;;;;7383326;19;20141;-74
2023/09/14 07:57:02;;;;;;;15.48;8.70;;;;;18.20;94675.00;;;;7386439;19;20137;-75
2023/09/14 07:59:37;;;;;;;8.68;7.43;;;;;18.40;94671.00;;;;7383929;19;20148;-74
2023/09/14 08:02:11;;;;;;;9.95;8.55;;;;;18.90;94671.00;;;;7382016;19;20168;-78
2023/09/14 08:04:53;;;;;;;13.18;9.52;;;;;18.90;94684.00;;;;7384203;19;20159;-73
2023/09/14 08:07:28;;;;;;;11.30;8.10;;;;;19.00;94673.00;;;;7374350;19;20141;-73
2023/09/14 08:10:03;;;;;;;10.95;8.70;;;;;19.50;94685.00;;;;7384494;19;20599;-74
2023/09/14 08:12:31;;;;;;;9.98;8.43;;;;;19.50;94681.00;;;;7382983;19;20608;-76
2023/09/14 08:15:05;;;;;;;10.82;8.20;;;;;19.70;94681.00;;;;7386239;19;20132;-77
2023/09/14 08:17:33;;;;;;;8.27;7.30;;;;;20.00;94671.00;;;;7382745;19;20205;-75
2023/09/14 08:20:08;;;;;;;8.93;6.53;;;;;20.00;94671.00;;;;7383951;19;20136;-76
2023/09/14 08:22:36;;;;;;;8.15;7.35;;;;;19.80;94680.00;;;;7384425;19;20129;-74
2023/09/14 08:25:10;;;;;;;8.27;6.72;;;;;20.30;94678.00;;;;7384093;19;20178;-77
2023/09/14 08:27:45;;;;;;;9.15;6.15;;;;;21.00;94673.00;;;;7382997;19;20595;-76
2023/09/14 08:30:13;;;;;;;9.15;5.97;;;;;21.00;94697.00;;;;7383724;19;20151;-75
2023/09/14 08:32:47;;;;;;;7.35;6.03;;;;;20.20;94684.00;;;;7382737;19;20155;-77
2023/09/14 08:35:28;;;;;;;8.85;6.55;;;;;20.50;94683.00;;;;7381760;19;20267;-77
2023/09/14 08:37:55;;;;;;;7.50;6.10;;;;;21.20;94679.00;;;;7382200;19;20899;-76
2023/09/14 08:40:30;;;;;;;7.38;6.35;;;;;21.50;94676.00;;;;7383068;19;20519;-76
2023/09/14 08:43:11;;;;;;;7.75;6.10;;;;;22.20;94678.00;;;;7378938;19;20143;-76
2023/09/14 08:45:47;;;;;;;7.50;5.47;;;;;22.30;94689.00;;;;7382418;19;20148;-75
2023/09/14 08:48:17;;;;;;;6.00;5.25;;;;;22.50;94683.00;;;;7379881;19;20140;-75
2023/09/14 08:50:54;;;;;;;6.70;5.82;;;;;22.30;94695.00;;;;7382758;19;20631;-76
2023/09/14 08:53:24;;;;;;;6.18;5.07;;;;;21.80;94701.00;;;;7382705;19;20178;-75
2023/09/14 08:55:59;;;;;;;6.18;5.45;;;;;21.20;94710.00;;;;7383337;19;20137;-76
2023/09/14 08:58:28;;;;;;;7.20;4.95;;;;;20.50;94707.00;;;;7382673;19;20196;-76
2023/09/14 09:01:03;;;;;;;6.10;4.93;;;;;20.50;94692.00;;;;7383935;19;20592;-77
2023/09/14 09:03:39;;;;;;;5.57;4.93;;;;;21.10;94692.00;;;;7381349;19;20148;-75
2023/09/14 09:06:08;;;;;;;6.93;4.97;;;;;21.60;94683.00;;;;7384650;19;20137;-77
2023/09/14 09:08:42;;;;;;;7.18;4.70;;;;;21.90;94676.00;;;;7382365;19;20147;-75
2023/09/14 09:11:11;;;;;;;12.40;5.05;;;;;21.60;94678.00;;;;7383426;19;20132;-74
2023/09/14 09:13:46;;;;;;;6.97;4.47;;;;;21.50;94695.00;;;;7385238;19;23311;-78
2023/09/14 09:16:15;;;;;;;4.93;3.92;;;;;20.90;94673.00;;;;7381999;19;20162;-78
2023/09/14 09:19:06;;;;;;;4.85;3.47;;;;;21.60;94664.00;;;;7383180;19;20159;-75
2023/09/14 09:21:42;;;;;;;5.38;3.67;;;;;22.50;94663.00;;;;7381644;19;20148;-75
2023/09/14 09:24:26;;;;;;;5.88;3.78;;;;;23.10;94673.00;;;;7382818;19;20604;-76
2023/09/14 09:27:01;;;;;;;4.07;3.67;;;;;23.70;94658.00;;;;7383371;19;20171;-78
2023/09/14 09:29:37;;;;;;;3.70;3.30;;;;;23.60;94666.00;;;;7380895;19;20474;-77
2023/09/14 09:32:21;;;;;;;6.22;3.83;;;;;23.80;94673.00;;;;7381265;19;20553;-76
2023/09/14 09:34:50;;;;;;;4.80;3.70;;;;;23.40;94690.00;;;;7382312;19;21029;-77
2023/09/14 09:37:25;;;;;;;4.70;3.88;;;;;22.50;94695.00;;;;7384468;19;20139;-74
2023/09/14 09:39:55;;;;;;;4.97;3.80;;;;;22.20;94693.00;;;;7380670;19;20472;-75
2023/09/14 09:42:29;;;;;;;4.38;3.40;;;;;21.60;94710.00;;;;7383297;19;20140;-77
2023/09/14 09:44:58;;;;;;;3.75;3.30;;;;;21.20;94711.00;;;;7382321;19;20152;-76
2023/09/14 09:47:34;;;;;;;4.53;3.30;;;;;20.80;94710.00;;;;7380563;19;20587;-76
2023/09/14 09:50:13;;;;;;;4.80;3.38;;;;;21.10;94697.00;;;;7380231;19;20164;-76
2023/09/14 09:52:47;;;;;;;3.55;2.85;;;;;21.30;94696.00;;;;7383106;19;20141;-75
2023/09/14 09:55:23;;;;;;;3.92;3.30;;;;;21.10;94702.00;;;;7380597;19;20612;-77
2023/09/14 09:57:59;;;;;;;3.72;3.42;;;;;21.50;94693.00;;;;7380326;19;20252;-76
2023/09/14 10:00:39;;;;;;;3.90;3.15;;;;;21.50;94694.00;;;;7382644;19;20137;-77
2023/09/14 10:03:17;;;;;;;4.30;3.00;;;;;21.80;94691.00;;;;7382802;19;20200;-78
2023/09/14 10:05:45;;;;;;;4.45;3.20;;;;;21.40;94688.00;;;;7379825;19;20157;-78
2023/09/14 10:08:20;;;;;;;4.47;2.92;;;;;21.20;94685.00;;;;7381267;19;20149;-75
2023/09/14 10:10:51;;;;;;;3.20;2.90;;;;;21.80;94692.00;;;;7389463;19;20245;-74
2023/09/14 10:13:46;;;;;;;3.53;2.85;;;;;21.80;94694.00;;;;7388136;19;20491;-76
2023/09/14 10:16:25;;;;;;;3.63;3.13;;;;;22.00;94691.00;;;;7388377;19;20491;-74
2023/09/14 10:18:54;;;;;;;4.90;3.03;;;;;21.70;94694.00;;;;7387239;19;20160;-76
2023/09/14 10:21:30;;;;;;;4.22;3.05;;;;;21.90;94699.00;;;;7389126;19;20216;-75
2023/09/14 10:23:58;;;;;;;4.53;3.63;;;;;21.90;94688.00;;;;7389999;19;20480;-75
2023/09/14 10:26:44;;;;;;;4.65;3.70;;;;;21.80;94693.00;;;;7386836;19;20172;-74
2023/09/14 10:29:20;;;;;;;4.40;3.50;;;;;21.60;94689.00;;;;7386788;19;20159;-76
2023/09/14 10:31:57;;;;;;;4.38;3.47;;;;;22.00;94675.00;;;;7388017;19;20158;-75
2023/09/14 10:34:26;;;;;;;5.25;3.72;;;;;22.70;94681.00;;;;7388230;19;20176;-76
2023/09/14 10:36:57;;;;;;;6.25;3.47;;;;;22.70;94682.00;;;;7386953;19;20584;-77
2023/09/14 10:39:34;;;;;;;3.80;3.40;;;;;22.20;94688.00;;;;7387408;19;20450;-75
2023/09/14 10:42:01;;;;;;;4.50;3.33;;;;;21.70;94692.00;;;;7386974;19;20144;-74
2023/09/14 10:44:30;;;;;;;4.28;3.38;;;;;21.60;94690.00;;;;7378696;19;20592;-75
2023/09/14 10:47:05;;;;;;;6.72;3.38;;;;;21.20;94698.00;;;;7385937;19;20592;-75
2023/09/14 10:49:35;;;;;;;5.53;3.50;;;;;20.80;94706.00;;;;7387212;19;20133;-75
2023/09/14 10:52:10;;;;;;;11.75;3.80;;;;;20.70;94705.00;;;;7386824;19;20129;-76
2023/09/14 10:54:39;;;;;;;4.10;3.30;;;;;20.30;94703.00;;;;7386113;19;20136;-76
2023/09/14 10:57:22;;;;;;;4.78;3.53;;;;;20.20;94691.00;;;;7387663;19;20486;-74
2023/09/14 10:59:53;;;;;;;4.60;3.67;;;;;20.00;94690.00;;;;7386650;19;20133;-75
2023/09/14 11:02:39;;;;;;;6.70;3.40;;;;;19.90;94693.00;;;;7386571;19;20789;-75
2023/09/14 11:05:21;;;;;;;4.72;3.88;;;;;19.80;94699.00;;;;7385436;19;20143;-75
2023/09/14 11:08:04;;;;;;;4.78;3.63;;;;;20.10;94688.00;;;;7385655;19;20152;-75
2023/09/14 11:10:37;;;;;;;6.40;3.80;;;;;20.50;94690.00;;;;7388013;19;20458;-76
2023/09/14 11:13:20;;;;;;;4.82;3.83;;;;;20.80;94680.00;;;;7386715;19;20627;-75
2023/09/14 11:15:56;;;;;;;4.90;3.70;;;;;21.00;94676.00;;;;7385702;19;20623;-74
2023/09/14 11:18:44;;;;;;;7.38;4.50;;;;;21.10;94678.00;;;;7385065;19;20145;-75
2023/09/14 11:21:42;;;;;;;6.78;3.90;;;;;21.10;94681.00;;;;7385052;19;20243;-75
2023/09/14 11:24:10;;;;;;;11.60;3.63;;;;;21.50;94675.00;;;;7386556;19;20741;-74
2023/09/14 11:26:54;;;;;;;6.35;4.00;;;;;21.20;94672.00;;;;7386030;19;20180;-75
2023/09/14 11:29:41;;;;;;;4.68;4.18;;;;;20.90;94669.00;;;;7387423;19;20139;-75
2023/09/14 11:32:22;;;;;;;6.28;4.20;;;;;20.80;94673.00;;;;7386680;19;20558;-71
2023/09/14 11:34:57;;;;;;;4.43;3.83;;;;;20.90;94662.00;;;;7386594;19;20164;-72
2023/09/14 11:37:34;;;;;;;7.78;3.80;;;;;21.00;94659.00;;;;7386042;19;20143;-73
2023/09/14 11:40:16;;;;;;;6.60;3.72;;;;;21.20;94662.00;;;;7385524;19;20159;-72
2023/09/14 11:43:07;;;;;;;3.25;2.70;;;;;21.30;94663.00;;;;7384635;19;20141;-72
2023/09/14 11:45:39;;;;;;;7.88;3.55;;;;;21.60;94658.00;;;;7381613;19;20172;-71
2023/09/14 11:48:19;;;;;;;5.90;2.97;;;;;21.70;94657.00;;;;7386121;19;20491;-72
2023/09/14 11:50:51;;;;;;;4.72;3.50;;;;;21.80;94651.00;;;;7385970;19;20156;-70
2023/09/14 11:53:35;;;;;;;4.38;3.50;;;;;21.80;94644.00;;;;7386619;19;20202;-72
2023/09/14 11:56:04;;;;;;;6.63;3.58;;;;;21.30;94654.00;;;;7383554;19;20153;-72
2023/09/14 11:58:39;;;;;;;5.97;3.30;;;;;21.80;94652.00;;;;7386084;19;21626;-73
2023/09/14 12:01:13;;;;;;;4.53;2.90;;;;;21.50;94661.00;;;;7387062;19;20152;-72
2023/09/14 12:03:49;;;;;;;5.13;3.50;;;;;21.50;94650.00;;;;7383405;19;20148;-73
2023/09/14 12:06:17;;;;;;;4.07;3.28;;;;;22.20;94642.00;;;;7383589;19;20145;-77
2023/09/14 12:08:52;;;;;;;5.25;3.38;;;;;22.60;94647.00;;;;7383938;19;20630;-72
2023/09/14 12:11:23;;;;;;;6.72;3.83;;;;;22.80;94651.00;;;;7382762;19;20492;-74
2023/09/14 12:13:57;;;;;;;3.53;3.10;;;;;22.70;94620.00;;;;7385325;19;20137;-70
2023/09/14 12:16:27;;;;;;;5.55;3.33;;;;;22.80;94600.00;;;;7385223;19;20153;-72
2023/09/14 12:19:02;;;;;;;4.53;3.33;;;;;22.50;94649.00;;;;7385491;19;20157;-73
2023/09/14 12:21:31;;;;;;;5.38;2.58;;;;;23.00;94643.00;;;;7382375;19;20166;-73
2023/09/14 12:24:06;;;;;;;4.32;3.00;;;;;23.40;94634.00;;;;7384399;19;20149;-74
2023/09/14 12:26:43;;;;;;;3.10;2.70;;;;;23.80;94630.00;;;;7384471;19;20176;-71
2023/09/14 12:29:18;;;;;;;3.70;2.78;;;;;23.60;94646.00;;;;7383875;19;20576;-71
2023/09/14 12:31:46;;;;;;;3.15;2.60;;;;;23.60;94639.00;;;;7381196;19;20133;-72
2023/09/14 12:34:21;;;;;;;5.25;2.70;;;;;23.20;94632.00;;;;7385568;19;20132;-73
2023/09/14 12:36:49;;;;;;;4.20;2.78;;;;;23.10;94646.00;;;;7384110;19;20166;-73
2023/09/14 12:39:23;;;;;;;4.03;2.83;;;;;22.50;94642.00;;;;7383668;19;20148;-74